sensor_id;sensor_type;location;lat;lon;timestamp;P1;durP1;ratioP1;P2;durP2;ratioP2
27632;SDS011;15046;50.930;13.334;2023-01-20T00:01:11;22.58;;;12.20;;
27632;SDS011;15046;50.930;13.334;2023-01-20T00:03:37;22.30;;;12.60;;
27632;SDS011;15046;50.930;13.334;2023-01-20T00:06:03;24.33;;;12.57;;
27632;SDS011;15046;50.930;13.334;2023-01-20T00:08:30;24.33;;;13.25;;
27632;SDS011;15046;50.930;13.334;2023-01-20T00:10:56;22.63;;;11.98;;
27632;SDS011;15046;50.930;13.334;2023-01-20T00:13:21;23.27;;;12.55;;
27632;SDS011;15046;50.930;13.334;2023-01-20T00:15:47;26.92;;;13.88;;
27632;SDS011;15046;50.930;13.334;2023-01-20T00:18:13;26.35;;;13.52;;
27632;SDS011;15046;50.930;13.334;2023-01-20T00:20:40;24.30;;;13.88;;
27632;SDS011;15046;50.930;13.334;2023-01-20T00:23:06;22.67;;;13.60;;
27632;SDS011;15046;50.930;13.334;2023-01-20T00:25:34;25.75;;;14.15;;
27632;SDS011;15046;50.930;13.334;2023-01-20T00:28:00;24.35;;;13.43;;
27632;SDS011;15046;50.930;13.334;2023-01-20T00:30:26;23.42;;;12.75;;
27632;SDS011;15046;50.930;13.334;2023-01-20T00:32:52;28.48;;;13.82;;
27632;SDS011;15046;50.930;13.334;2023-01-20T00:35:18;25.42;;;14.63;;
27632;SDS011;15046;50.930;13.334;2023-01-20T00:37:44;23.63;;;13.05;;
27632;SDS011;15046;50.930;13.334;2023-01-20T00:40:10;26.95;;;13.68;;
27632;SDS011;15046;50.930;13.334;2023-01-20T00:42:36;25.52;;;13.02;;
27632;SDS011;15046;50.930;13.334;2023-01-20T00:45:02;27.30;;;14.05;;
27632;SDS011;15046;50.930;13.334;2023-01-20T00:47:28;27.50;;;14.13;;
27632;SDS011;15046;50.930;13.334;2023-01-20T00:49:54;24.98;;;13.50;;
27632;SDS011;15046;50.930;13.334;2023-01-20T00:52:19;27.92;;;13.65;;
27632;SDS011;15046;50.930;13.334;2023-01-20T00:54:45;23.23;;;12.57;;
27632;SDS011;15046;50.930;13.334;2023-01-20T00:57:11;24.60;;;13.20;;
27632;SDS011;15046;50.930;13.334;2023-01-20T00:59:37;25.75;;;13.73;;
27632;SDS011;15046;50.930;13.334;2023-01-20T01:02:03;29.13;;;13.32;;
27632;SDS011;15046;50.930;13.334;2023-01-20T01:04:29;29.42;;;13.40;;
27632;SDS011;15046;50.930;13.334;2023-01-20T01:06:55;27.20;;;12.68;;
27632;SDS011;15046;50.930;13.334;2023-01-20T01:09:21;24.85;;;12.65;;
27632;SDS011;15046;50.930;13.334;2023-01-20T01:11:47;24.70;;;12.50;;
27632;SDS011;15046;50.930;13.334;2023-01-20T01:14:13;23.25;;;12.55;;
27632;SDS011;15046;50.930;13.334;2023-01-20T01:16:38;24.60;;;12.43;;
27632;SDS011;15046;50.930;13.334;2023-01-20T01:19:05;28.08;;;13.10;;
27632;SDS011;15046;50.930;13.334;2023-01-20T01:21:31;22.55;;;11.93;;
27632;SDS011;15046;50.930;13.334;2023-01-20T01:23:57;25.33;;;12.40;;
27632;SDS011;15046;50.930;13.334;2023-01-20T01:26:23;24.10;;;12.13;;
27632;SDS011;15046;50.930;13.334;2023-01-20T01:28:49;20.98;;;11.02;;
27632;SDS011;15046;50.930;13.334;2023-01-20T01:31:16;22.85;;;12.25;;
27632;SDS011;15046;50.930;13.334;2023-01-20T01:33:46;22.75;;;11.15;;
27632;SDS011;15046;50.930;13.334;2023-01-20T01:36:14;26.95;;;11.73;;
27632;SDS011;15046;50.930;13.334;2023-01-20T01:38:41;19.92;;;11.13;;
27632;SDS011;15046;50.930;13.334;2023-01-20T01:41:09;27.90;;;12.70;;
27632;SDS011;15046;50.930;13.334;2023-01-20T01:43:39;25.05;;;13.05;;
27632;SDS011;15046;50.930;13.334;2023-01-20T01:46:26;26.15;;;11.93;;
27632;SDS011;15046;50.930;13.334;2023-01-20T01:48:52;27.40;;;13.43;;
27632;SDS011;15046;50.930;13.334;2023-01-20T01:51:22;23.33;;;11.80;;
27632;SDS011;15046;50.930;13.334;2023-01-20T01:54:05;21.55;;;11.85;;
27632;SDS011;15046;50.930;13.334;2023-01-20T01:56:36;22.67;;;11.68;;
27632;SDS011;15046;50.930;13.334;2023-01-20T01:59:05;23.48;;;11.02;;
27632;SDS011;15046;50.930;13.334;2023-01-20T02:01:32;24.80;;;11.88;;
27632;SDS011;15046;50.930;13.334;2023-01-20T02:04:11;25.52;;;13.35;;
27632;SDS011;15046;50.930;13.334;2023-01-20T02:06:39;21.83;;;11.80;;
27632;SDS011;15046;50.930;13.334;2023-01-20T02:09:09;26.08;;;13.20;;
27632;SDS011;15046;50.930;13.334;2023-01-20T02:11:35;21.83;;;12.13;;
27632;SDS011;15046;50.930;13.334;2023-01-20T02:14:12;23.52;;;13.18;;
27632;SDS011;15046;50.930;13.334;2023-01-20T02:27:57;27.80;;;13.18;;
27632;SDS011;15046;50.930;13.334;2023-01-20T02:36:35;27.83;;;14.50;;
27632;SDS011;15046;50.930;13.334;2023-01-20T02:39:13;26.60;;;14.15;;
27632;SDS011;15046;50.930;13.334;2023-01-20T02:42:20;32.30;;;16.95;;
27632;SDS011;15046;50.930;13.334;2023-01-20T02:47:19;25.55;;;13.57;;
27632;SDS011;15046;50.930;13.334;2023-01-20T02:49:52;28.40;;;15.45;;
27632;SDS011;15046;50.930;13.334;2023-01-20T02:55:12;29.80;;;12.98;;
27632;SDS011;15046;50.930;13.334;2023-01-20T02:57:45;23.40;;;12.85;;
27632;SDS011;15046;50.930;13.334;2023-01-20T03:00:16;29.33;;;13.80;;
27632;SDS011;15046;50.930;13.334;2023-01-20T03:02:57;25.35;;;13.20;;
27632;SDS011;15046;50.930;13.334;2023-01-20T03:05:28;30.42;;;12.43;;
27632;SDS011;15046;50.930;13.334;2023-01-20T03:07:57;25.90;;;13.68;;
27632;SDS011;15046;50.930;13.334;2023-01-20T03:10:26;22.03;;;12.30;;
27632;SDS011;15046;50.930;13.334;2023-01-20T03:15:23;29.95;;;13.88;;
27632;SDS011;15046;50.930;13.334;2023-01-20T03:17:56;31.88;;;13.43;;
27632;SDS011;15046;50.930;13.334;2023-01-20T03:20:22;35.08;;;14.52;;
27632;SDS011;15046;50.930;13.334;2023-01-20T03:22:48;28.33;;;13.20;;
27632;SDS011;15046;50.930;13.334;2023-01-20T03:25:14;31.40;;;15.52;;
27632;SDS011;15046;50.930;13.334;2023-01-20T03:27:42;27.27;;;13.35;;
27632;SDS011;15046;50.930;13.334;2023-01-20T03:30:12;26.55;;;12.90;;
27632;SDS011;15046;50.930;13.334;2023-01-20T03:32:40;28.63;;;13.40;;
27632;SDS011;15046;50.930;13.334;2023-01-20T03:35:08;26.30;;;12.43;;
27632;SDS011;15046;50.930;13.334;2023-01-20T03:37:34;25.13;;;13.30;;
27632;SDS011;15046;50.930;13.334;2023-01-20T03:40:00;30.35;;;14.02;;
27632;SDS011;15046;50.930;13.334;2023-01-20T03:42:30;29.25;;;13.52;;
27632;SDS011;15046;50.930;13.334;2023-01-20T03:45:06;24.40;;;13.15;;
27632;SDS011;15046;50.930;13.334;2023-01-20T03:47:51;30.98;;;14.10;;
27632;SDS011;15046;50.930;13.334;2023-01-20T03:55:58;25.73;;;12.32;;
27632;SDS011;15046;50.930;13.334;2023-01-20T03:58:34;27.42;;;13.23;;
27632;SDS011;15046;50.930;13.334;2023-01-20T04:01:03;28.85;;;13.73;;
27632;SDS011;15046;50.930;13.334;2023-01-20T04:03:32;24.08;;;12.32;;
27632;SDS011;15046;50.930;13.334;2023-01-20T04:06:03;24.25;;;12.23;;
27632;SDS011;15046;50.930;13.334;2023-01-20T04:08:35;28.85;;;13.15;;
27632;SDS011;15046;50.930;13.334;2023-01-20T04:11:05;26.65;;;12.20;;
27632;SDS011;15046;50.930;13.334;2023-01-20T04:13:33;25.17;;;13.00;;
27632;SDS011;15046;50.930;13.334;2023-01-20T04:15:59;22.60;;;12.50;;
27632;SDS011;15046;50.930;13.334;2023-01-20T04:18:27;26.58;;;12.73;;
27632;SDS011;15046;50.930;13.334;2023-01-20T04:20:56;36.33;;;14.25;;
27632;SDS011;15046;50.930;13.334;2023-01-20T04:23:27;29.25;;;14.32;;
27632;SDS011;15046;50.930;13.334;2023-01-20T04:26:00;29.70;;;14.00;;
27632;SDS011;15046;50.930;13.334;2023-01-20T04:28:26;34.55;;;15.57;;
27632;SDS011;15046;50.930;13.334;2023-01-20T04:30:51;28.95;;;15.20;;
27632;SDS011;15046;50.930;13.334;2023-01-20T04:33:17;30.52;;;15.35;;
27632;SDS011;15046;50.930;13.334;2023-01-20T04:35:43;34.45;;;13.85;;
27632;SDS011;15046;50.930;13.334;2023-01-20T04:38:09;25.67;;;13.60;;
27632;SDS011;15046;50.930;13.334;2023-01-20T04:40:35;30.67;;;14.02;;
27632;SDS011;15046;50.930;13.334;2023-01-20T04:43:00;29.65;;;14.10;;
27632;SDS011;15046;50.930;13.334;2023-01-20T04:45:26;32.22;;;15.20;;
27632;SDS011;15046;50.930;13.334;2023-01-20T04:47:52;39.35;;;14.82;;
27632;SDS011;15046;50.930;13.334;2023-01-20T04:50:18;31.75;;;15.45;;
27632;SDS011;15046;50.930;13.334;2023-01-20T04:52:43;32.63;;;16.10;;
27632;SDS011;15046;50.930;13.334;2023-01-20T04:55:09;33.63;;;15.60;;
27632;SDS011;15046;50.930;13.334;2023-01-20T04:57:35;31.38;;;15.40;;
27632;SDS011;15046;50.930;13.334;2023-01-20T05:00:02;32.15;;;14.60;;
27632;SDS011;15046;50.930;13.334;2023-01-20T05:02:29;34.25;;;16.63;;
27632;SDS011;15046;50.930;13.334;2023-01-20T05:04:55;38.20;;;16.42;;
27632;SDS011;15046;50.930;13.334;2023-01-20T05:07:20;32.08;;;16.33;;
27632;SDS011;15046;50.930;13.334;2023-01-20T05:09:46;30.63;;;14.80;;
27632;SDS011;15046;50.930;13.334;2023-01-20T05:12:12;36.95;;;16.80;;
27632;SDS011;15046;50.930;13.334;2023-01-20T05:14:38;31.80;;;15.73;;
27632;SDS011;15046;50.930;13.334;2023-01-20T05:17:07;32.97;;;15.40;;
27632;SDS011;15046;50.930;13.334;2023-01-20T05:19:32;34.58;;;16.08;;
27632;SDS011;15046;50.930;13.334;2023-01-20T05:21:58;30.98;;;16.20;;
27632;SDS011;15046;50.930;13.334;2023-01-20T05:24:24;37.08;;;16.02;;
27632;SDS011;15046;50.930;13.334;2023-01-20T05:26:50;34.13;;;15.18;;
27632;SDS011;15046;50.930;13.334;2023-01-20T05:29:15;34.03;;;15.45;;
27632;SDS011;15046;50.930;13.334;2023-01-20T05:31:41;36.88;;;15.02;;
27632;SDS011;15046;50.930;13.334;2023-01-20T05:34:08;35.60;;;17.17;;
27632;SDS011;15046;50.930;13.334;2023-01-20T05:36:34;36.25;;;15.05;;
27632;SDS011;15046;50.930;13.334;2023-01-20T05:39:00;32.67;;;14.90;;
27632;SDS011;15046;50.930;13.334;2023-01-20T05:41:26;35.58;;;15.80;;
27632;SDS011;15046;50.930;13.334;2023-01-20T05:43:52;49.13;;;17.10;;
27632;SDS011;15046;50.930;13.334;2023-01-20T05:46:18;30.05;;;15.23;;
27632;SDS011;15046;50.930;13.334;2023-01-20T05:48:44;32.45;;;15.38;;
27632;SDS011;15046;50.930;13.334;2023-01-20T05:51:10;27.63;;;14.80;;
27632;SDS011;15046;50.930;13.334;2023-01-20T05:53:36;30.73;;;15.20;;
27632;SDS011;15046;50.930;13.334;2023-01-20T05:56:03;34.20;;;14.80;;
27632;SDS011;15046;50.930;13.334;2023-01-20T05:58:30;33.22;;;15.13;;
27632;SDS011;15046;50.930;13.334;2023-01-20T06:01:03;31.92;;;15.88;;
27632;SDS011;15046;50.930;13.334;2023-01-20T06:03:30;35.88;;;15.35;;
27632;SDS011;15046;50.930;13.334;2023-01-20T06:05:59;34.88;;;16.40;;
27632;SDS011;15046;50.930;13.334;2023-01-20T06:08:26;45.15;;;16.85;;
27632;SDS011;15046;50.930;13.334;2023-01-20T06:10:52;38.70;;;15.23;;
27632;SDS011;15046;50.930;13.334;2023-01-20T06:13:18;33.75;;;15.13;;
27632;SDS011;15046;50.930;13.334;2023-01-20T06:15:43;37.58;;;15.38;;
27632;SDS011;15046;50.930;13.334;2023-01-20T06:18:09;31.95;;;15.95;;
27632;SDS011;15046;50.930;13.334;2023-01-20T06:20:38;33.08;;;15.07;;
27632;SDS011;15046;50.930;13.334;2023-01-20T06:23:03;33.03;;;15.63;;
27632;SDS011;15046;50.930;13.334;2023-01-20T06:25:29;30.98;;;14.45;;
27632;SDS011;15046;50.930;13.334;2023-01-20T06:27:55;31.27;;;14.43;;
27632;SDS011;15046;50.930;13.334;2023-01-20T06:30:21;29.88;;;15.10;;
27632;SDS011;15046;50.930;13.334;2023-01-20T06:32:46;31.45;;;15.65;;
27632;SDS011;15046;50.930;13.334;2023-01-20T06:35:12;29.02;;;14.80;;
27632;SDS011;15046;50.930;13.334;2023-01-20T06:37:38;42.38;;;17.02;;
27632;SDS011;15046;50.930;13.334;2023-01-20T06:40:04;35.45;;;15.55;;
27632;SDS011;15046;50.930;13.334;2023-01-20T06:42:30;30.08;;;14.38;;
27632;SDS011;15046;50.930;13.334;2023-01-20T06:44:56;38.42;;;15.30;;
27632;SDS011;15046;50.930;13.334;2023-01-20T06:47:22;35.42;;;15.27;;
27632;SDS011;15046;50.930;13.334;2023-01-20T06:49:48;32.13;;;15.18;;
27632;SDS011;15046;50.930;13.334;2023-01-20T06:52:13;37.97;;;15.60;;
27632;SDS011;15046;50.930;13.334;2023-01-20T06:54:39;35.53;;;16.88;;
27632;SDS011;15046;50.930;13.334;2023-01-20T06:57:05;40.33;;;17.58;;
27632;SDS011;15046;50.930;13.334;2023-01-20T06:59:31;31.40;;;16.10;;
27632;SDS011;15046;50.930;13.334;2023-01-20T07:01:56;34.67;;;15.13;;
27632;SDS011;15046;50.930;13.334;2023-01-20T07:04:22;33.72;;;16.25;;
27632;SDS011;15046;50.930;13.334;2023-01-20T07:06:48;34.15;;;16.25;;
27632;SDS011;15046;50.930;13.334;2023-01-20T07:09:14;41.08;;;15.93;;
27632;SDS011;15046;50.930;13.334;2023-01-20T07:11:39;38.92;;;17.48;;
27632;SDS011;15046;50.930;13.334;2023-01-20T07:14:05;37.50;;;16.08;;
27632;SDS011;15046;50.930;13.334;2023-01-20T07:16:32;38.00;;;16.05;;
27632;SDS011;15046;50.930;13.334;2023-01-20T07:18:58;34.42;;;16.08;;
27632;SDS011;15046;50.930;13.334;2023-01-20T07:21:24;32.67;;;15.55;;
27632;SDS011;15046;50.930;13.334;2023-01-20T07:23:50;34.55;;;16.35;;
27632;SDS011;15046;50.930;13.334;2023-01-20T07:26:17;32.38;;;15.98;;
27632;SDS011;15046;50.930;13.334;2023-01-20T07:28:44;33.33;;;16.20;;
27632;SDS011;15046;50.930;13.334;2023-01-20T07:31:12;34.80;;;15.65;;
27632;SDS011;15046;50.930;13.334;2023-01-20T07:33:45;36.97;;;17.50;;
27632;SDS011;15046;50.930;13.334;2023-01-20T07:36:12;31.90;;;16.42;;
27632;SDS011;15046;50.930;13.334;2023-01-20T07:38:39;35.40;;;16.85;;
27632;SDS011;15046;50.930;13.334;2023-01-20T07:41:06;37.83;;;16.52;;
27632;SDS011;15046;50.930;13.334;2023-01-20T07:43:36;40.10;;;17.92;;
27632;SDS011;15046;50.930;13.334;2023-01-20T07:46:02;37.33;;;18.55;;
27632;SDS011;15046;50.930;13.334;2023-01-20T07:48:29;45.20;;;17.20;;
27632;SDS011;15046;50.930;13.334;2023-01-20T07:50:56;35.60;;;17.13;;
27632;SDS011;15046;50.930;13.334;2023-01-20T07:53:27;39.60;;;18.25;;
27632;SDS011;15046;50.930;13.334;2023-01-20T07:55:54;40.15;;;18.13;;
27632;SDS011;15046;50.930;13.334;2023-01-20T07:58:19;36.53;;;16.92;;
27632;SDS011;15046;50.930;13.334;2023-01-20T08:00:45;38.40;;;17.92;;
27632;SDS011;15046;50.930;13.334;2023-01-20T08:03:13;32.75;;;15.77;;
27632;SDS011;15046;50.930;13.334;2023-01-20T08:05:41;35.43;;;16.30;;
27632;SDS011;15046;50.930;13.334;2023-01-20T08:08:07;36.88;;;18.63;;
27632;SDS011;15046;50.930;13.334;2023-01-20T08:10:33;49.20;;;18.75;;
27632;SDS011;15046;50.930;13.334;2023-01-20T08:12:59;39.95;;;17.17;;
27632;SDS011;15046;50.930;13.334;2023-01-20T08:15:24;38.63;;;16.77;;
27632;SDS011;15046;50.930;13.334;2023-01-20T08:17:54;32.85;;;15.95;;
27632;SDS011;15046;50.930;13.334;2023-01-20T08:20:20;38.20;;;16.92;;
27632;SDS011;15046;50.930;13.334;2023-01-20T08:22:46;35.17;;;16.85;;
27632;SDS011;15046;50.930;13.334;2023-01-20T08:25:12;33.75;;;16.48;;
27632;SDS011;15046;50.930;13.334;2023-01-20T08:27:39;37.05;;;15.63;;
27632;SDS011;15046;50.930;13.334;2023-01-20T08:30:05;42.35;;;18.25;;
27632;SDS011;15046;50.930;13.334;2023-01-20T08:32:31;39.13;;;17.77;;
27632;SDS011;15046;50.930;13.334;2023-01-20T08:34:57;36.65;;;17.58;;
27632;SDS011;15046;50.930;13.334;2023-01-20T08:37:23;35.80;;;16.95;;
27632;SDS011;15046;50.930;13.334;2023-01-20T08:39:49;34.53;;;15.95;;
27632;SDS011;15046;50.930;13.334;2023-01-20T08:42:15;34.85;;;16.63;;
27632;SDS011;15046;50.930;13.334;2023-01-20T08:44:41;31.25;;;15.20;;
27632;SDS011;15046;50.930;13.334;2023-01-20T08:47:06;34.05;;;15.40;;
27632;SDS011;15046;50.930;13.334;2023-01-20T08:49:32;33.35;;;15.05;;
27632;SDS011;15046;50.930;13.334;2023-01-20T08:51:58;36.50;;;16.13;;
27632;SDS011;15046;50.930;13.334;2023-01-20T08:54:24;34.70;;;16.45;;
27632;SDS011;15046;50.930;13.334;2023-01-20T08:56:53;32.75;;;16.20;;
27632;SDS011;15046;50.930;13.334;2023-01-20T08:59:19;31.85;;;16.10;;
27632;SDS011;15046;50.930;13.334;2023-01-20T09:01:45;31.95;;;15.40;;
27632;SDS011;15046;50.930;13.334;2023-01-20T09:04:11;35.92;;;14.63;;
27632;SDS011;15046;50.930;13.334;2023-01-20T09:09:10;37.92;;;15.60;;
27632;SDS011;15046;50.930;13.334;2023-01-20T09:11:37;30.13;;;14.25;;
27632;SDS011;15046;50.930;13.334;2023-01-20T09:14:04;30.33;;;14.73;;
27632;SDS011;15046;50.930;13.334;2023-01-20T09:16:30;28.60;;;14.48;;
27632;SDS011;15046;50.930;13.334;2023-01-20T09:18:56;27.95;;;14.55;;
27632;SDS011;15046;50.930;13.334;2023-01-20T09:21:21;28.67;;;14.45;;
27632;SDS011;15046;50.930;13.334;2023-01-20T09:23:47;30.33;;;15.73;;
27632;SDS011;15046;50.930;13.334;2023-01-20T09:26:13;28.17;;;14.30;;
27632;SDS011;15046;50.930;13.334;2023-01-20T09:28:39;29.40;;;14.10;;
27632;SDS011;15046;50.930;13.334;2023-01-20T09:31:09;26.33;;;14.18;;
27632;SDS011;15046;50.930;13.334;2023-01-20T09:33:36;31.75;;;14.40;;
27632;SDS011;15046;50.930;13.334;2023-01-20T09:36:04;29.40;;;14.23;;
27632;SDS011;15046;50.930;13.334;2023-01-20T09:38:31;31.63;;;13.70;;
27632;SDS011;15046;50.930;13.334;2023-01-20T09:41:16;26.23;;;13.77;;
27632;SDS011;15046;50.930;13.334;2023-01-20T09:46:57;27.20;;;13.07;;
27632;SDS011;15046;50.930;13.334;2023-01-20T09:52:56;28.13;;;13.00;;
27632;SDS011;15046;50.930;13.334;2023-01-20T09:55:43;28.30;;;12.68;;
27632;SDS011;15046;50.930;13.334;2023-01-20T10:00:39;26.65;;;13.48;;
27632;SDS011;15046;50.930;13.334;2023-01-20T10:03:11;25.95;;;12.40;;
27632;SDS011;15046;50.930;13.334;2023-01-20T10:05:44;27.10;;;14.10;;
27632;SDS011;15046;50.930;13.334;2023-01-20T10:10:50;26.48;;;13.32;;
27632;SDS011;15046;50.930;13.334;2023-01-20T10:14:08;28.20;;;13.50;;
27632;SDS011;15046;50.930;13.334;2023-01-20T10:16:11;27.63;;;13.43;;
27632;SDS011;15046;50.930;13.334;2023-01-20T10:18:56;24.67;;;11.93;;
27632;SDS011;15046;50.930;13.334;2023-01-20T10:21:46;27.67;;;13.73;;
27632;SDS011;15046;50.930;13.334;2023-01-20T10:24:27;28.40;;;13.73;;
27632;SDS011;15046;50.930;13.334;2023-01-20T10:27:00;24.60;;;12.93;;
27632;SDS011;15046;50.930;13.334;2023-01-20T10:29:28;22.83;;;12.88;;
27632;SDS011;15046;50.930;13.334;2023-01-20T10:32:01;24.65;;;12.30;;
27632;SDS011;15046;50.930;13.334;2023-01-20T10:34:37;25.42;;;12.55;;
27632;SDS011;15046;50.930;13.334;2023-01-20T10:37:09;26.23;;;12.05;;
27632;SDS011;15046;50.930;13.334;2023-01-20T10:39:41;24.63;;;12.95;;
27632;SDS011;15046;50.930;13.334;2023-01-20T10:42:32;25.88;;;12.10;;
27632;SDS011;15046;50.930;13.334;2023-01-20T10:44:58;25.23;;;11.63;;
27632;SDS011;15046;50.930;13.334;2023-01-20T10:47:31;22.80;;;11.65;;
27632;SDS011;15046;50.930;13.334;2023-01-20T10:51:08;24.08;;;12.13;;
27632;SDS011;15046;50.930;13.334;2023-01-20T10:53:23;22.75;;;11.88;;
27632;SDS011;15046;50.930;13.334;2023-01-20T10:56:10;23.33;;;11.35;;
27632;SDS011;15046;50.930;13.334;2023-01-20T10:58:39;24.77;;;13.45;;
27632;SDS011;15046;50.930;13.334;2023-01-20T11:01:10;25.75;;;13.43;;
27632;SDS011;15046;50.930;13.334;2023-01-20T11:03:39;26.45;;;12.20;;
27632;SDS011;15046;50.930;13.334;2023-01-20T11:06:20;25.02;;;11.85;;
27632;SDS011;15046;50.930;13.334;2023-01-20T11:08:52;32.75;;;14.82;;
27632;SDS011;15046;50.930;13.334;2023-01-20T11:11:20;25.38;;;13.65;;
27632;SDS011;15046;50.930;13.334;2023-01-20T11:13:48;30.42;;;14.20;;
27632;SDS011;15046;50.930;13.334;2023-01-20T11:16:20;27.95;;;14.32;;
27632;SDS011;15046;50.930;13.334;2023-01-20T11:19:03;29.08;;;12.43;;
27632;SDS011;15046;50.930;13.334;2023-01-20T11:21:33;28.38;;;12.90;;
27632;SDS011;15046;50.930;13.334;2023-01-20T11:24:01;23.15;;;12.77;;
27632;SDS011;15046;50.930;13.334;2023-01-20T11:26:48;35.67;;;13.75;;
27632;SDS011;15046;50.930;13.334;2023-01-20T11:31:46;33.05;;;15.02;;
27632;SDS011;15046;50.930;13.334;2023-01-20T11:34:29;37.65;;;16.25;;
27632;SDS011;15046;50.930;13.334;2023-01-20T11:42:19;27.55;;;12.82;;
27632;SDS011;15046;50.930;13.334;2023-01-20T11:44:51;24.67;;;12.85;;
27632;SDS011;15046;50.930;13.334;2023-01-20T11:47:34;29.05;;;13.32;;
27632;SDS011;15046;50.930;13.334;2023-01-20T11:52:37;30.35;;;14.10;;
27632;SDS011;15046;50.930;13.334;2023-01-20T11:55:20;33.55;;;14.20;;
27632;SDS011;15046;50.930;13.334;2023-01-20T11:57:50;22.15;;;12.65;;
27632;SDS011;15046;50.930;13.334;2023-01-20T12:03:00;26.77;;;12.40;;
27632;SDS011;15046;50.930;13.334;2023-01-20T12:08:23;27.77;;;12.20;;
27632;SDS011;15046;50.930;13.334;2023-01-20T12:10:54;27.65;;;12.45;;
27632;SDS011;15046;50.930;13.334;2023-01-20T12:13:32;28.50;;;13.32;;
27632;SDS011;15046;50.930;13.334;2023-01-20T12:18:51;30.83;;;14.05;;
27632;SDS011;15046;50.930;13.334;2023-01-20T12:21:21;30.83;;;16.17;;
27632;SDS011;15046;50.930;13.334;2023-01-20T12:23:59;31.35;;;13.40;;
27632;SDS011;15046;50.930;13.334;2023-01-20T12:26:26;28.17;;;14.00;;
27632;SDS011;15046;50.930;13.334;2023-01-20T12:31:18;27.63;;;12.88;;
27632;SDS011;15046;50.930;13.334;2023-01-20T12:51:02;39.08;;;15.10;;
27632;SDS011;15046;50.930;13.334;2023-01-20T12:53:44;35.03;;;12.75;;
27632;SDS011;15046;50.930;13.334;2023-01-20T12:56:55;35.50;;;15.30;;
27632;SDS011;15046;50.930;13.334;2023-01-20T12:59:30;50.17;;;19.90;;
27632;SDS011;15046;50.930;13.334;2023-01-20T13:15:36;28.58;;;12.90;;
27632;SDS011;15046;50.930;13.334;2023-01-20T13:21:02;32.78;;;13.15;;
27632;SDS011;15046;50.930;13.334;2023-01-20T13:23:32;30.92;;;12.98;;
27632;SDS011;15046;50.930;13.334;2023-01-20T13:26:00;31.80;;;14.85;;
27632;SDS011;15046;50.930;13.334;2023-01-20T13:28:28;30.75;;;14.73;;
27632;SDS011;15046;50.930;13.334;2023-01-20T13:30:55;30.70;;;15.68;;
27632;SDS011;15046;50.930;13.334;2023-01-20T13:33:33;32.72;;;14.68;;
27632;SDS011;15046;50.930;13.334;2023-01-20T13:38:42;40.95;;;17.80;;
27632;SDS011;15046;50.930;13.334;2023-01-20T13:41:09;39.88;;;17.38;;
27632;SDS011;15046;50.930;13.334;2023-01-20T13:43:36;35.50;;;15.20;;
27632;SDS011;15046;50.930;13.334;2023-01-20T13:57:17;48.42;;;18.65;;
27632;SDS011;15046;50.930;13.334;2023-01-20T13:59:44;39.13;;;17.60;;
27632;SDS011;15046;50.930;13.334;2023-01-20T14:02:20;44.78;;;17.38;;
27632;SDS011;15046;50.930;13.334;2023-01-20T14:04:48;36.60;;;16.67;;
27632;SDS011;15046;50.930;13.334;2023-01-20T14:07:21;40.75;;;16.95;;
27632;SDS011;15046;50.930;13.334;2023-01-20T14:09:53;35.00;;;16.33;;
27632;SDS011;15046;50.930;13.334;2023-01-20T14:12:21;42.55;;;16.77;;
27632;SDS011;15046;50.930;13.334;2023-01-20T14:14:50;39.70;;;17.25;;
27632;SDS011;15046;50.930;13.334;2023-01-20T14:17:20;39.88;;;17.88;;
27632;SDS011;15046;50.930;13.334;2023-01-20T14:19:51;39.90;;;16.20;;
27632;SDS011;15046;50.930;13.334;2023-01-20T14:22:22;44.67;;;18.15;;
27632;SDS011;15046;50.930;13.334;2023-01-20T14:24:53;38.67;;;17.45;;
27632;SDS011;15046;50.930;13.334;2023-01-20T14:27:22;44.47;;;16.63;;
27632;SDS011;15046;50.930;13.334;2023-01-20T14:29:52;39.50;;;18.38;;
27632;SDS011;15046;50.930;13.334;2023-01-20T14:32:32;46.00;;;19.38;;
27632;SDS011;15046;50.930;13.334;2023-01-20T14:37:33;37.63;;;18.00;;
27632;SDS011;15046;50.930;13.334;2023-01-20T14:40:04;38.05;;;17.05;;
27632;SDS011;15046;50.930;13.334;2023-01-20T14:42:34;35.00;;;16.13;;
27632;SDS011;15046;50.930;13.334;2023-01-20T14:45:00;30.40;;;16.23;;
27632;SDS011;15046;50.930;13.334;2023-01-20T14:47:27;35.90;;;16.30;;
27632;SDS011;15046;50.930;13.334;2023-01-20T14:50:02;38.20;;;16.67;;
27632;SDS011;15046;50.930;13.334;2023-01-20T14:52:29;42.05;;;17.55;;
27632;SDS011;15046;50.930;13.334;2023-01-20T14:54:55;34.08;;;16.23;;
27632;SDS011;15046;50.930;13.334;2023-01-20T14:57:22;42.30;;;18.25;;
27632;SDS011;15046;50.930;13.334;2023-01-20T15:02:41;30.75;;;15.50;;
27632;SDS011;15046;50.930;13.334;2023-01-20T15:07:45;31.90;;;16.45;;
27632;SDS011;15046;50.930;13.334;2023-01-20T15:10:13;36.83;;;17.65;;
27632;SDS011;15046;50.930;13.334;2023-01-20T15:17:41;41.38;;;18.95;;
27632;SDS011;15046;50.930;13.334;2023-01-20T15:20:36;41.75;;;19.02;;
27632;SDS011;15046;50.930;13.334;2023-01-20T15:25:55;44.17;;;20.33;;
27632;SDS011;15046;50.930;13.334;2023-01-20T15:28:34;40.75;;;20.00;;
27632;SDS011;15046;50.930;13.334;2023-01-20T15:31:07;44.10;;;19.55;;
27632;SDS011;15046;50.930;13.334;2023-01-20T15:33:38;42.50;;;20.05;;
27632;SDS011;15046;50.930;13.334;2023-01-20T15:38:46;53.42;;;25.35;;
27632;SDS011;15046;50.930;13.334;2023-01-20T15:41:12;53.10;;;24.17;;
27632;SDS011;15046;50.930;13.334;2023-01-20T15:43:38;52.75;;;23.00;;
27632;SDS011;15046;50.930;13.334;2023-01-20T15:46:12;54.10;;;24.35;;
27632;SDS011;15046;50.930;13.334;2023-01-20T15:48:42;56.42;;;25.63;;
27632;SDS011;15046;50.930;13.334;2023-01-20T15:51:11;47.90;;;20.92;;
27632;SDS011;15046;50.930;13.334;2023-01-20T15:53:41;48.03;;;20.77;;
27632;SDS011;15046;50.930;13.334;2023-01-20T15:56:23;48.10;;;22.60;;
27632;SDS011;15046;50.930;13.334;2023-01-20T15:58:50;43.55;;;19.55;;
27632;SDS011;15046;50.930;13.334;2023-01-20T16:01:18;43.67;;;20.48;;
27632;SDS011;15046;50.930;13.334;2023-01-20T16:03:47;49.30;;;21.83;;
27632;SDS011;15046;50.930;13.334;2023-01-20T16:06:15;50.67;;;21.70;;
27632;SDS011;15046;50.930;13.334;2023-01-20T16:08:47;50.28;;;20.92;;
27632;SDS011;15046;50.930;13.334;2023-01-20T16:11:14;50.50;;;22.80;;
27632;SDS011;15046;50.930;13.334;2023-01-20T16:13:41;51.50;;;23.02;;
27632;SDS011;15046;50.930;13.334;2023-01-20T16:16:11;45.08;;;20.40;;
27632;SDS011;15046;50.930;13.334;2023-01-20T16:18:39;44.72;;;19.48;;
27632;SDS011;15046;50.930;13.334;2023-01-20T16:21:06;44.10;;;20.73;;
27632;SDS011;15046;50.930;13.334;2023-01-20T16:23:32;52.63;;;21.67;;
27632;SDS011;15046;50.930;13.334;2023-01-20T16:25:58;46.10;;;21.08;;
27632;SDS011;15046;50.930;13.334;2023-01-20T16:28:24;52.30;;;21.13;;
27632;SDS011;15046;50.930;13.334;2023-01-20T16:30:50;52.72;;;21.98;;
27632;SDS011;15046;50.930;13.334;2023-01-20T16:33:22;50.80;;;22.80;;